This is the latest recevied weather packets stored in our database for station/object KF4WSW-13. If no packets are shown the sender has not sent any weather packets the latest 1 day(s).
| Time | Temp. | Humidity | Pressure | Rain* | Wind** | Luminosity | Snow |
|---|---|---|---|---|---|---|---|
| 1778005564 | 27.78° C | 64% | 1013.7 hPa | 0 mm | 0.89 m/s, 260° | 710 W/m² | - |
| 1778005261 | 28.33° C | 61% | 1013.7 hPa | 0 mm | 1.34 m/s, 296° | 208 W/m² | - |
| 1778004958 | 28.89° C | 61% | 1013.9 hPa | 0 mm | 1.34 m/s, 310° | 206 W/m² | - |
| 1778004655 | 29.44° C | 59% | 1013.4 hPa | 0 mm | 1.34 m/s, 274° | 245 W/m² | - |
| 1778004350 | 28.89° C | 60% | 1013.5 hPa | 0 mm | 1.34 m/s, 235° | 743 W/m² | - |
| 1778004049 | 28.33° C | 61% | 1013.6 hPa | 0 mm | 1.34 m/s, 309° | 262 W/m² | - |
| 1778003749 | 28.89° C | 61% | 1013.7 hPa | 0 mm | 1.79 m/s, 339° | 362 W/m² | - |
| 1778003446 | 27.22° C | 63% | 1013.8 hPa | 0 mm | 0.89 m/s, 261° | 881 W/m² | - |
| 1778003143 | 27.78° C | 61% | 1013.8 hPa | 0 mm | 1.34 m/s, 244° | 181 W/m² | - |
| 1778002839 | 28.89° C | 60% | 1013.9 hPa | 0 mm | 1.34 m/s, 287° | 476 W/m² | - |
| 1778002536 | 27.78° C | 62% | 1014 hPa | 0 mm | 0.45 m/s, 276° | 882 W/m² | - |
| 1778002233 | 27.78° C | 61% | 1014.1 hPa | 0 mm | 0.45 m/s, 265° | 269 W/m² | - |
| 1778001931 | 27.78° C | 62% | 1013.9 hPa | 0 mm | 0.45 m/s, 278° | 191 W/m² | - |
| 1778001627 | 27.78° C | 61% | 1013.9 hPa | 0 mm | 0.45 m/s, 278° | 377 W/m² | - |
| 1778001322 | 27.78° C | 60% | 1014.1 hPa | 0 mm | 0.45 m/s, 268° | 177 W/m² | - |
| 1778001019 | 28.33° C | 60% | 1014.1 hPa | 0 mm | 0.45 m/s, 264° | 249 W/m² | - |
| 1778000717 | 28.33° C | 60% | 1014.2 hPa | 0 mm | 1.79 m/s, 273° | 226 W/m² | - |
| 1778000413 | 28.89° C | 60% | 1014.2 hPa | 0 mm | 0 m/s | 924 W/m² | - |
| 1778000108 | 27.78° C | 61% | 1014.5 hPa | 0 mm | 0.45 m/s, 259° | 878 W/m² | - |
| 1777999804 | 27.78° C | 63% | 1014.3 hPa | 0 mm | 0.45 m/s, 276° | 234 W/m² | - |
| 1777999500 | 27.78° C | 62% | 1014.4 hPa | 0 mm | 0 m/s | 202 W/m² | - |
| 1777999198 | 27.78° C | 60% | 1014.4 hPa | 0 mm | 0 m/s | 219 W/m² | - |
| 1777998896 | 27.78° C | 59% | 1014.5 hPa | 0 mm | 0.45 m/s, 324° | 773 W/m² | - |
| 1777998595 | 27.22° C | 63% | 1014.4 hPa | 0 mm | 0 m/s | 226 W/m² | - |
| 1777998290 | 27.22° C | 63% | 1014.4 hPa | 0 mm | 0.89 m/s, 301° | 175 W/m² | - |
* Rain latest hour (hover to see other rain measurements)
** Current wind speed in m/s (hover to see current wind gust speed)